Tiempo atmosférico en la estación meteorológica de Aragüés Del Puerto, Huesca (1120 m.)

Fecha
DESCASC
Temp. máxima en grados centígrados (hora)
DESCASC
Temp. mínima en grados centígrados (hora)
DESCASC
Temp. media en grados centígrados
DESCASC
Racha de viento máxima en m/sg (hora)
DESCASC
Velocidad máxima media en intervalos de 10 minutos(hora)
DESCASC
Precipitaciones diarias en mm
DESCASC
Precipitaciones de 00:00 a 06:00 en mm
DESCASC
Precipitaciones de 06:00 a 12:00 en mm
DESCASC
Precipitaciones de 12:00 a 18:00 en mm
DESCASC
Precipitaciones de 18:00 a 24:00 en mm
DESCASC
17-08-2017 32.1 (16:10) 13.9 (06:30) 23 8.33 (14:40) 4.17 (17:00) 0 0 0 0 0
16-08-2017 29.8 (17:00) 16.8 (05:10) 23.3 8.33 (17:40) 4.17 (15:50) 0 0 0 0 0
15-08-2017 30.9 (16:30) 18.5 (00:00) 24.7 9.44 (11:30) 5.28 (20:10) 0 0 0 0 0
14-08-2017 31.5 (16:20) 16.9 (06:00) 24.2 10.28 (16:40) 6.39 (22:40) 0 0 0 0 0
13-08-2017 28.8 (16:40) 14.5 (00:00) 21.6 8.33 (14:50) 4.72 (15:20) 0 0 0 0 0
12-08-2017 27.1 (18:20) 8.4 (00:00) 17.8 8.61 (16:50) 4.17 (15:40) 0 0 0 0 0
11-08-2017 22 (16:20) 6.4 (00:00) 14.2 13.89 (17:10) 8.61 (17:40) 0 0 0 0 0
10-08-2017 19.6 (16:30) 7.5 (00:00) 13.6 10.56 (16:40) 6.11 (15:00) 0 0 0 0 0
09-08-2017 18.5 (13:10) 7.6 (00:00) 13 13.33 (20:20) 7.5 (19:10) 0 0 0 0 0
08-08-2017 20.9 (15:40) 10.8 (00:00) 15.8 14.44 (16:50) 9.17 (16:50) 0 0 0 0 0
07-08-2017 28.4 (17:10) 17.4 (00:00) 22.9 18.06 (23:00) 6.94 (23:00) 2.4 0 0 0 2.4
06-08-2017 24.9 (19:10) 14.3 (00:00) 19.6 14.17 (00:40) 7.5 (00:40) 5.8 5.8 0 0 0
05-08-2017 32 (15:30) 18.7 (00:00) 25.4 8.06 (15:30) 4.17 (14:10) 0 0 0 0 0
04-08-2017 32.9 (16:30) 19.9 (00:00) 26.4 8.89 (14:50) 5 (15:10) 0 0 0 0 0
03-08-2017 33.7 (16:50) 20.6 (00:00) 27.2 9.44 (13:50) 5.56 (14:50) 0 0 0 0 0
02-08-2017 29.8 (12:40) 19.7 (00:00) 24.8 11.39 (11:50) 7.5 (18:40) 0 0 0 0 0
01-08-2017 30.2 (18:00) 16.7 (00:00) 23.5 11.39 (17:00) 5.83 (16:20) 0 0 0 0 0
31-07-2017 32.5 (15:50) 17.3 (00:00) 24.9 13.61 (14:50) 7.22 (14:20) 0 0 0 0 0
30-07-2017 31.7 (15:20) 20.9 (00:00) 26.3 11.39 (15:40) 6.11 (15:30) 0 0 0 0 0
29-07-2017 32.4 (17:00) 18.9 (00:00) 25.7 9.72 (15:50) 5.28 (12:10) 0 0 0 0 0
28-07-2017 31.5 (16:40) 14.5 (00:00) 23 8.89 (15:00) 4.17 (16:50) 0 0 0 0 0
27-07-2017 30.7 (17:30) 13.2 (00:00) 22 10 (16:30) 3.89 (15:40) 0 0 0 0 0
26-07-2017 26 (14:20) 8.9 (00:00) 17.4 11.11 (17:10) 6.39 (14:50) 0 0 0 0 0
25-07-2017 22.6 (12:40) 9.5 (00:00) 16.1 -- (--) -- (--) 0 0 0 0 0
24-07-2017 22.1 (14:00) 14 (00:00) 18.1 14.17 (14:40) 5.83 (14:40) 0 0 0 0 0
23-07-2017 26.9 (16:10) 13.4 (00:00) 20.1 8.89 (14:00) 4.44 (17:10) 0 0 0 0 0
22-07-2017 26.7 (18:50) 14.8 (00:00) 20.8 8.89 (15:00) 4.44 (15:30) 0.4 0.4 0 0 0
21-07-2017 24.5 (17:50) 14.2 (00:00) 19.3 8.89 (18:50) 5.56 (15:30) 7.8 0 0 0 7.8
20-07-2017 26.4 (15:20) 13.6 (00:00) 20 8.89 (16:20) 4.17 (00:30) 0 0 0 0 0
19-07-2017 28.8 (16:30) 16.6 (00:00) 22.7 -- (--) -- (--) 6.8 0.2 0 0 6.6

Gráficas

Temp. máximas Temp. mínimas Temp. medias Precipitaciones Rachas de viento máximas Velocidades máximas media en intervalos de 10 minutos

Datos horarios

Fecha y hora oficial Temperatura (ºC) Velocidad del viento (km/h) Dirección del viento Racha (km/h) Dirección de racha Precipitación (mm) Presión (hPa) Tendencia (hPa) Humedad (%)
2017-08-17 23:00:00 22.6 8 Norte 20 Norte 0 904.4 0.4 41
2017-08-17 22:00:00 23.6 8 Norte 19 Norte 0 904.4 0.4 40
2017-08-17 21:00:00 25.9 7 Norte 15 Norte 0 904.1 0 33
2017-08-17 20:00:00 29 5 Oeste 22 Oeste 0 904 -0.3 25
2017-08-17 19:00:00 31.1 8 Sudoeste 23 Sudoeste 0 904 -0.7 21
2017-08-17 18:00:00 31.8 6 Sur 28 Sur 0 904.1 -1 20
2017-08-17 17:00:00 31.7 15 Sur 27 Sur 0 904.3 -1.2 19
2017-08-17 16:00:00 31.7 10 Sudoeste 28 Sudoeste 0 904.7 -1.2 19
2017-08-17 15:00:00 31.2 10 Sudoeste 30 Sudoeste 0 905.1 -1 20
2017-08-17 14:00:00 30.2 10 Sur 25 Sur 0 905.5 -0.6 21
2017-08-17 13:00:00 29.3 12 Sur 22 Sudoeste 0 905.9 -0.2 21
2017-08-17 12:00:00 28.5 8 Sur 15 Sur 0 906.1 0 22
2017-08-17 11:00:00 26.3 6 Sudeste 10 Sudeste 0 906.1 0.1 23
2017-08-17 10:00:00 22.6 4 Este 9 Nordeste 0 906.1 0.3 32
2017-08-17 09:00:00 18.8 6 Nordeste 10 Nordeste 0 906.1 0.4 41
2017-08-17 08:00:00 16 8 Norte 13 Norte 0 906 0.3 43
2017-08-17 07:00:00 14.3 3 Sudoeste 7 Nordeste 0 905.8 0 52
2017-08-17 06:00:00 14.4 2 Sur 8 Este 0 905.7 -0.2 53
2017-08-17 05:00:00 15.2 3 Oeste 10 Nordeste 0 905.7 -0.5 48
2017-08-17 04:00:00 16.1 4 Norte 14 Norte 0 905.8 -0.1 46
2017-08-17 03:00:00 16 5 Norte 13 Nordeste 0 905.9 -0.2 49
2017-08-17 02:00:00 16.5 3 Nordeste 10 Nordeste 0 906.2 0 51
2017-08-17 01:00:00 17.6 5 Norte 14 Norte 0 905.9 0 49
2017-08-17 00:00:00 18.6 9 Norte 15 Norte 0 906.1 0.8 52
2017-08-16 23:00:00 19.3 4 Norte 11 Norte 0 906.2 1.2 51
2017-08-16 22:00:00 21.1 6 Norte 14 Norte 0 905.9 1.2 47
2017-08-16 21:00:00 24.4 3 Oeste 24 Sudoeste 0 905.3 0.5 30
2017-08-16 20:00:00 26.2 8 Oeste 27 Sudoeste 0 905 0.2 34
2017-08-16 19:00:00 28.6 6 Oeste 23 Sudoeste 0 904.7 0 22
2017-08-16 18:00:00 28.9 8 Oeste 30 Sudoeste 0 904.8 -0.1 28
2017-08-16 17:00:00 29.7 8 Oeste 24 Sudoeste 0 904.8 -0.4 24
2017-08-16 16:00:00 29 12 Sur 30 Sudoeste 0 904.7 -0.9 24
2017-08-16 15:00:00 29.3 10 Sudoeste 25 Sur 0 904.9 -0.7 31
2017-08-16 14:00:00 28.3 11 Sudoeste 27 Sur 0 905.2 -0.3 34
2017-08-16 13:00:00 28.3 11 Sur 23 Sur 0 905.6 0.1 33
2017-08-16 12:00:00 26.8 7 Sur 19 Sur 0 905.6 0.2 35
2017-08-16 11:00:00 24.5 5 Sur 11 Sudoeste 0 905.5 0.3 42
2017-08-16 10:00:00 20.5 3 Sudeste 6 Este 0 905.5 0.8 59
2017-08-16 09:00:00 18.1 0 Calma 6 Norte 0 905.4 0.8 66
2017-08-16 08:00:00 16.9 3 Norte 7 Nordeste 0 905.2 0.4 67
2017-08-16 07:00:00 17.7 3 Noroeste 10 Norte 0 904.7 -0.4 62
2017-08-16 06:00:00 17.2 2 Norte 7 Noroeste 0 904.6 -0.5 63
2017-08-16 05:00:00 17 4 Nordeste 8 Norte 0 904.8 -0.3 64
2017-08-16 04:00:00 17.7 3 Norte 5 Sudoeste 0 905.1 0 61
2017-08-16 03:00:00 17.9 3 Noroeste 14 Norte 0 905.1 -0.2 60
2017-08-16 02:00:00 19.3 8 Norte 18 Norte 0 905.1 0.1 55
2017-08-16 01:00:00 19.7 14 Norte 19 Norte 0 905.1 0.3 53
2017-08-16 00:00:00 20.6 5 Norte 18 Nordeste 0 905.3 1.1 49
2017-08-15 23:00:00 21.3 10 Norte 19 Norte 0 905 1.6 46
2017-08-15 22:00:00 22.6 9 Norte 17 Sudeste 0 904.8 2 43
2017-08-15 21:00:00 24.9 9 Sudeste 30 Sur 0 904.2 1.3 35
2017-08-15 20:00:00 27.3 9 Sudoeste 27 Sur 0 903.4 0.5 29
2017-08-15 19:00:00 29.2 10 Sur 23 Sur 0 902.8 -0.3 25
2017-08-15 18:00:00 29.7 8 Sur 25 Sudoeste 0 902.9 -0.8 24
2017-08-15 17:00:00 30.8 12 Sudoeste 30 Sudoeste 0 902.9 -1 22
2017-08-15 16:00:00 29.5 13 Sudeste 26 Sur 0 903.1 -1 24
2017-08-15 15:00:00 28.4 12 Sudeste 26 Sur 0 903.7 -0.9 24
2017-08-15 14:00:00 28.8 12 Sur 30 Sur 0 903.9 -0.4 23
2017-08-15 13:00:00 28.1 8 Sudoeste 23 Sur 0 904.1 0.1 23
2017-08-15 12:00:00 25.3 14 Sur 34 Sur 0 904.6 0.8 27
2017-08-15 11:00:00 25.4 8 Sur 21 Sur 0 904.3 0.9 27
2017-08-15 10:00:00 22.7 5 Nordeste 12 Nordeste 0 904 0.8 32
2017-08-15 09:00:00 21.5 7 Este 14 Este 0 903.8 0.4 33
2017-08-15 08:00:00 20.1 4 Nordeste 14 Norte 0 903.4 0.1 38
2017-08-15 07:00:00 18.7 11 Nordeste 20 Norte 0 903.2 -0.3 44
2017-08-15 06:00:00 18.8 7 Norte 14 Nordeste 0 903.4 -0.7 47
2017-08-15 05:00:00 18.9 5 Norte 18 Norte 0 903.3 -1.2 49
2017-08-15 04:00:00 19.1 10 Norte 17 Norte 0 903.5 -1.4 54
2017-08-15 03:00:00 19.5 4 Noroeste 21 Nordeste 0 904.1 -1.5 56
2017-08-15 02:00:00 20.1 6 Norte 19 Nordeste 0 904.5 0.7 50
2017-08-15 01:00:00 19.1 6 Norte 20 Nordeste 0 904.9 1.1 57
2017-08-15 00:00:00 21.1 4 Nordeste 25 Norte 0 905.6 3.6 49
2017-08-14 23:00:00 21.6 14 Norte 33 Norte 0 903.8 2.1 53
2017-08-14 22:00:00 25 12 Sudoeste 21 Sudoeste 0 903.8 2 30
2017-08-14 21:00:00 25 11 Norte 19 Sur 0 902 0 29
2017-08-14 20:00:00 27.6 9 Sur 26 Sur 0 901.7 -0.4 23
2017-08-14 19:00:00 29 17 Sur 31 Sudoeste 0 901.8 -0.3 20
2017-08-14 18:00:00 30.2 18 Sur 35 Sudoeste 0 902 -0.6 18
2017-08-14 17:00:00 30.6 17 Sur 37 Sudoeste 0 902.1 -1 18
2017-08-14 16:00:00 30.9 15 Sudoeste 33 Sudoeste 0 902.1 -1.2 19
2017-08-14 15:00:00 30.7 12 Sur 32 Sur 0 902.6 -0.9 21
2017-08-14 14:00:00 29.8 13 Sur 29 Sur 0 903.1 -0.4 24
2017-08-14 13:00:00 28.6 14 Sur 29 Sur 0 903.3 -0.1 25
2017-08-14 12:00:00 27.6 13 Sudeste 29 Sur 0 903.5 0.3 26
2017-08-14 11:00:00 26 13 Este 26 Sudeste 0 903.5 0.5 27
2017-08-14 10:00:00 24.3 5 Sudeste 14 Norte 0 903.4 0.7 31
2017-08-14 09:00:00 20.7 10 Nordeste 16 Norte 0 903.2 0.3 41
2017-08-14 08:00:00 17.4 4 Nordeste 17 Nordeste 0 903 -0.1 49
2017-08-14 07:00:00 17.6 11 Nordeste 18 Nordeste 0 902.7 -0.6 49
2017-08-14 06:00:00 17 10 Nordeste 19 Norte 0 902.9 -0.5 53
2017-08-14 05:00:00 17.4 9 Norte 18 Norte 0 903.1 -0.5 51
2017-08-14 04:00:00 18.4 12 Norte 18 Norte 0 903.3 -0.6 47
2017-08-14 03:00:00 17.8 12 Nordeste 22 Norte 0 903.4 -0.5 51
2017-08-14 02:00:00 18.5 12 Nordeste 23 Norte 0 903.6 0.1 51
2017-08-14 01:00:00 19 14 Norte 22 Norte 0 903.9 1.3 48
2017-08-14 00:00:00 19.6 8 Norte 17 Nordeste 0 903.9 1.8 44
2017-08-13 23:00:00 20.4 9 Norte 22 Norte 0 903.5 1.4 36
2017-08-13 22:00:00 21.2 13 Norte 23 Nordeste 0 902.6 0.3 32
2017-08-13 21:00:00 23.2 8 Norte 12 Norte 0 902.1 -0.4 28
2017-08-13 20:00:00 26.3 5 Sudoeste 23 Sudoeste 0 902.1 -0.9 22
2017-08-13 19:00:00 28.1 14 Sudoeste 27 Sudoeste 0 902.3 -1 22
2017-08-13 18:00:00 28.5 7 Sudeste 27 Sudoeste 0 902.5 -1.2 21
2017-08-13 17:00:00 28.4 6 Sudeste 26 Oeste 0 903 -1 23
2017-08-13 16:00:00 28.3 13 Sur 30 Sudoeste 0 903.3 -1.2 23
2017-08-13 15:00:00 28 9 Sur 30 Sudoeste 0 903.7 -1.1 22
2017-08-13 14:00:00 27.9 11 Sudoeste 25 Sudeste 0 904 -0.9 24
2017-08-13 13:00:00 26.5 8 Sur 21 Sudeste 0 904.5 -0.3 27
2017-08-13 12:00:00 25.7 8 Sur 18 Sur 0 904.8 0.1 31
2017-08-13 11:00:00 23.6 6 Sur 11 Sur 0 904.9 0.5 36
2017-08-13 10:00:00 20.2 4 Este 8 Nordeste 0 904.8 0.5 52
2017-08-13 09:00:00 16.3 4 Nordeste 15 Norte 0 904.7 0.3 65
2017-08-13 08:00:00 15 5 Norte 17 Norte 0 904.4 -0.2 65
2017-08-13 07:00:00 14.9 11 Norte 18 Norte 0 904.3 -0.6 65
2017-08-13 06:00:00 15.3 9 Norte 18 Nordeste 0 904.4 -0.7 64
2017-08-13 05:00:00 15.4 9 Norte 17 Norte 0 904.6 -0.8 64
2017-08-13 04:00:00 15.6 10 Norte 17 Norte 0 904.9 -0.7 65
2017-08-13 03:00:00 15.8 9 Norte 18 Nordeste 0 905.1 -0.5 65
2017-08-13 02:00:00 16.5 10 Norte 18 Norte 0 905.4 0.1 62
2017-08-13 01:00:00 17.2 14 Norte 21 Norte 0 905.6 0.5 58
2017-08-13 00:00:00 16.5 2 Norte 13 Norte 0 905.6 0.9 61
2017-08-12 23:00:00 18.1 10 Norte 20 Norte 0 905.3 0.8 55
2017-08-12 22:00:00 19.5 5 Nordeste 12 Norte 0 905.1 0.8 53
2017-08-12 21:00:00 22.4 5 Noroeste 12 Nordeste 0 904.7 0.2 41
2017-08-12 20:00:00 23 6 Norte 25 Sudoeste 0 904.5 -0.1 42
2017-08-12 19:00:00 24.5 10 Sudoeste 26 Sudoeste 0 904.3 -1 35
2017-08-12 18:00:00 26.7 11 Sudoeste 26 Sudoeste 0 904.5 -1.2 29
2017-08-12 17:00:00 26.8 12 Sudoeste 31 Sur 0 904.6 -1.5 27
2017-08-12 16:00:00 26.4 13 Sudoeste 28 Sudoeste 0 905.3 -1.2 27
2017-08-12 15:00:00 25.4 9 Sudoeste 30 Sudoeste 0 905.7 -1.2 28
2017-08-12 14:00:00 24.2 10 Sur 22 Sur 0 906.1 -1.1 29
2017-08-12 13:00:00 23.4 6 Sur 22 Sur 0 906.5 -0.5 28
2017-08-12 12:00:00 21.4 10 Sur 16 Sudeste 0 906.9 0.4 31
2017-08-12 11:00:00 18.6 8 Sudoeste 15 Sudoeste 0 907.2 1 35
2017-08-12 10:00:00 16.6 4 Sudeste 16 Nordeste 0 907 0.8 37
2017-08-12 09:00:00 12.7 3 Nordeste 7 Nordeste 0 906.5 0.8 52
2017-08-12 08:00:00 9.7 3 Norte 5 Norte 0 906.2 0.2 52
2017-08-12 07:00:00 8.5 0 Calma 8 Noroeste 0 906.2 0 56
2017-08-12 06:00:00 9.4 4 Norte 15 Norte 0 905.7 -0.4 49
2017-08-12 05:00:00 8.9 3 Noroeste 8 Norte 0 906 0 60
2017-08-12 04:00:00 9.6 3 Noroeste 11 Norte 0 906.2 0.1 57
2017-08-12 03:00:00 9.5 3 Norte 8 Norte 0 906.1 0 60
2017-08-12 02:00:00 10 2 Nordeste 8 Norte 0 906 -0.2 63
2017-08-12 01:00:00 10.2 4 Noroeste 10 Noroeste 0 906.1 0.4 64
2017-08-12 00:00:00 10.7 4 Norte 10 Nordeste 0 906.1 1.1 65
2017-08-11 23:00:00 11.5 2 Oeste 8 Oeste 0 906.2 1.4 62
2017-08-11 22:00:00 13.9 4 Sudoeste 27 Nordeste 0 905.7 1 53
2017-08-11 21:00:00 16.1 14 Norte 39 Nordeste 0 905 0.3 40
2017-08-11 20:00:00 16.8 19 Norte 41 Norte 0 904.8 0.2 42
2017-08-11 19:00:00 17.8 23 Norte 47 Nordeste 0 904.7 -0.2 38
2017-08-11 18:00:00 18.5 28 Nordeste 50 Nordeste 0 904.7 -0.2 38
2017-08-11 17:00:00 20 25 Norte 43 Nordeste 0 904.6 -0.5 31
2017-08-11 16:00:00 21.4 15 Sudoeste 30 Sudoeste 0 904.9 -0.5 28
2017-08-11 15:00:00 21.2 13 Sudoeste 24 Sudoeste 0 904.9 -0.9 27
2017-08-11 14:00:00 20.8 7 Sur 26 Sudoeste 0 905.1 -0.6 28
2017-08-11 13:00:00 19.4 9 Nordeste 22 Nordeste 0 905.4 -0.4 28
2017-08-11 12:00:00 19 6 Sudeste 17 Sur 0 905.8 0.4 27
2017-08-11 11:00:00 16 6 Sudeste 13 Sur 0 905.7 0.5 39
2017-08-11 10:00:00 13.9 8 Sudeste 13 Sur 0 905.8 0.8 42
2017-08-11 09:00:00 10.6 6 Nordeste 15 Nordeste 0 905.4 -0.1 54
2017-08-11 08:00:00 6.8 5 Norte 9 Norte 0 905.2 -0.3 69
2017-08-11 07:00:00 7 7 Oeste 13 Oeste 0 905 -0.9 67
2017-08-11 06:00:00 7.2 4 Norte 8 Nordeste 0 905.5 -0.9 70
2017-08-11 05:00:00 9.2 4 Oeste 16 Norte 0 905.5 -1.2 64
2017-08-11 04:00:00 9.2 3 Norte 14 Nordeste 0 905.9 -1.3 69
2017-08-11 03:00:00 9.7 4 Sudoeste 16 Norte 0 906.4 -0.9 67
2017-08-11 02:00:00 9.4 6 Sudeste 15 Norte 0 906.7 -0.9 70
2017-08-11 01:00:00 10.2 3 Sudoeste 13 Nordeste 0 907.2 -0.1 65
2017-08-11 00:00:00 10.9 4 Nordeste 25 Noroeste 0 907.3 0.2 61
2017-08-10 23:00:00 11.6 14 Noroeste 23 Noroeste 0 907.6 0.9 56
2017-08-10 22:00:00 12.5 10 Noroeste 28 Oeste 0 907.3 0.8 56
2017-08-10 21:00:00 13.3 9 Oeste 29 Noroeste 0 907.1 1 55
2017-08-10 20:00:00 14.5 10 Noroeste 31 Noroeste 0 906.7 0.7 49
2017-08-10 19:00:00 16 12 Norte 31 Nordeste 0 906.5 0.1 44
2017-08-10 18:00:00 16.9 17 Nordeste 28 Nordeste 0 906.1 -0.4 46
2017-08-10 17:00:00 17.3 15 Nordeste 38 Sudoeste 0 906 -0.2 44
2017-08-10 16:00:00 18.3 9 Este 28 Nordeste 0 906.4 -0.1 40
2017-08-10 15:00:00 16.7 22 Nordeste 36 Nordeste 0 906.5 0.3 45
2017-08-10 14:00:00 16.2 13 Nordeste 28 Nordeste 0 906.2 0.2 47
2017-08-10 13:00:00 15.9 7 Norte 30 Nordeste 0 906.5 0.6 48
2017-08-10 12:00:00 15.5 7 Nordeste 30 Nordeste 0 906.2 0.6 48
2017-08-10 11:00:00 17.2 8 Sudoeste 21 Oeste 0 906 1 44
2017-08-10 10:00:00 14.3 6 Sudoeste 18 Sudoeste 0 905.9 1.1 51
2017-08-10 09:00:00 14.3 7 Sur 31 Noroeste 0 905.6 1 50
2017-08-10 08:00:00 11.4 9 Noroeste 31 Norte 0 905 0.2 60
2017-08-10 07:00:00 10.4 8 Noroeste 17 Nordeste 0 904.8 -0.5 65
2017-08-10 06:00:00 10.2 10 Noroeste 24 Noroeste 0 904.6 -0.8 68
2017-08-10 05:00:00 8 3 Sudoeste 13 Norte 0 904.8 -0.9 74
2017-08-10 04:00:00 8.1 4 Sudoeste 16 Nordeste 0 905.3 -0.4 72
2017-08-10 03:00:00 8 3 Sudoeste 12 Norte 0 905.4 0 70
2017-08-10 02:00:00 8.4 5 Sudoeste 14 Norte 0 905.7 1 66
2017-08-10 01:00:00 9.2 6 Norte 13 Nordeste 0 905.7 1.7 60
2017-08-10 00:00:00 9.9 7 Sudoeste 30 Norte 0 905.4 2 58
2017-08-09 23:00:00 11.4 18 Norte 37 Norte 0 904.7 2 54
2017-08-09 22:00:00 11.7 16 Norte 45 Norte 0 904 1.4 51
2017-08-09 21:00:00 12.4 15 Norte 48 Norte 0 903.4 0.7 46
2017-08-09 20:00:00 13.1 22 Norte 47 Nordeste 0 902.7 0.1 43
2017-08-09 19:00:00 13.9 22 Norte 44 Nordeste 0 902.6 -0.1 48
2017-08-09 18:00:00 16.2 19 Nordeste 39 Nordeste 0 902.7 0.4 42
2017-08-09 17:00:00 17.4 18 Nordeste 35 Nordeste 0 902.6 0.5 42
2017-08-09 16:00:00 16.4 10 Norte 26 Sudoeste 0 902.7 0.6 47
2017-08-09 15:00:00 15.7 13 Oeste 34 Sudoeste 0 902.3 0.1 53
2017-08-09 14:00:00 16.5 14 Sudoeste 30 Sudoeste 0 902.1 0 51
2017-08-09 13:00:00 17.6 8 Sudoeste 25 Sudoeste 0 902.1 0.1 46
2017-08-09 12:00:00 15.2 9 Sur 13 Sur 0 902.2 0.6 59
2017-08-09 11:00:00 14.2 4 Sudeste 9 Sur 0 902.1 0.5 62
2017-08-09 10:00:00 11.6 2 Sur 10 Sur 0 902 0 69
2017-08-09 09:00:00 9.3 2 Oeste 6 Nordeste 0 901.6 -0.3 80
2017-08-09 08:00:00 8.9 8 Noroeste 12 Norte 0 901.6 -0.1 80
2017-08-09 07:00:00 7.6 3 Noroeste 8 Norte 0 902 0.2 83
2017-08-09 06:00:00 8.6 6 Norte 12 Norte 0 901.9 0 78
2017-08-09 05:00:00 8.7 6 Norte 15 Norte 0 901.7 -0.1 76
2017-08-09 04:00:00 9 4 Noroeste 15 Oeste 0 901.8 -1 76
2017-08-09 03:00:00 9.7 5 Oeste 17 Norte 0 901.9 -1.1 74
2017-08-09 02:00:00 9 6 Sur 14 Norte 0 901.8 -1.1 79
2017-08-09 01:00:00 10 9 Norte 13 Norte 0 902.8 0.6 76
2017-08-09 00:00:00 10.8 5 Sudeste 13 Norte 0 903 1.7 71
2017-08-08 23:00:00 11.2 2 Norte 6 Norte 0 902.9 1.9 70
2017-08-08 22:00:00 13.4 5 Este 26 Nordeste 0 902.2 1.6 62
2017-08-08 21:00:00 15.3 17 Norte 33 Norte 0 901.3 0.9 49
2017-08-08 20:00:00 16.2 18 Norte 39 Norte 0 901 0.8 46
2017-08-08 19:00:00 18 21 Norte 41 Norte 0 900.6 0.6 39
2017-08-08 18:00:00 19.2 21 Nordeste 48 Nordeste 0 900.4 0.7 34
2017-08-08 17:00:00 19.1 31 Nordeste 52 Nordeste 0 900.2 0.5 32
2017-08-08 16:00:00 20.5 17 Norte 38 Nordeste 0 900 0.2 36
2017-08-08 15:00:00 20.3 25 Nordeste 41 Norte 0 899.7 0.1 37
2017-08-08 14:00:00 19.9 26 Nordeste 46 Nordeste 0 899.7 0.1 38
2017-08-08 13:00:00 19.3 24 Nordeste 45 Nordeste 0 899.8 0.4 43
2017-08-08 12:00:00 18.9 22 Nordeste 38 Nordeste 0 899.6 0.5 43
2017-08-08 11:00:00 18.3 19 Nordeste 32 Nordeste 0 899.6 0.8 51
2017-08-08 10:00:00 17 6 Sur 10 Sur 0 899.4 0.9 69
2017-08-08 09:00:00 14.8 3 Este 8 Sudeste 0 899.1 0.7 80
2017-08-08 08:00:00 13.3 8 Nordeste 11 Norte 0 898.8 0.2 90
2017-08-08 07:00:00 13.7 2 Sudoeste 8 Sudoeste 0 898.5 0.1 87
2017-08-08 06:00:00 14.2 2 Sur 8 Oeste 0 898.4 -0.1 87
2017-08-08 05:00:00 14.4 5 Oeste 12 Sudoeste 0 898.6 0.5 86
2017-08-08 04:00:00 14.9 6 Sudoeste 17 Oeste 0 898.4 -0.1 90
2017-08-08 03:00:00 15.3 9 Sudoeste 23 Noroeste 0 898.5 0.7 88
2017-08-08 02:00:00 16.4 7 Oeste 16 Sudoeste 0 898.1 0.5 92
2017-08-08 01:00:00 16.8 6 Sudoeste 15 Nordeste 0 898.5 1.6 91
2017-08-08 00:00:00 17.4 6 Norte 30 Sudoeste 2 897.8 0.4 88
2017-08-07 23:00:00 20.2 25 Oeste 65 Oeste 0.4 897.6 0.1 76
2017-08-07 22:00:00 23.2 4 Sudeste 21 Sudeste 0 896.9 -1.1 53
2017-08-07 21:00:00 24.6 9 Este 25 Este 0 897.4 -1 48
2017-08-07 20:00:00 25.9 7 Este 25 Sudeste 0 897.5 -1.4 39
2017-08-07 19:00:00 26.9 7 Este 26 Sur 0 898 -1.4 37
2017-08-07 18:00:00 27.5 14 Sur 28 Sur 0 898.4 -1.4 32
2017-08-07 17:00:00 27.5 14 Sur 31 Sur 0 898.9 -1.5 40
2017-08-07 16:00:00 26.6 16 Sur 28 Sur 0 899.4 -1.4 43
2017-08-07 15:00:00 25.2 13 Sur 30 Sur 0 899.8 -1.2 51
2017-08-07 14:00:00 24.1 13 Sudeste 31 Sur 0 900.4 -0.7 58
2017-08-07 13:00:00 23.9 16 Sur 31 Sur 0 900.8 -0.5 55
2017-08-07 12:00:00 23.9 12 Sudeste 27 Sur 0 901 -0.3 58
2017-08-07 11:00:00 24.2 16 Sur 28 Sur 0 901.1 -0.3 58
2017-08-07 10:00:00 21.7 11 Sudeste 28 Sur 0 901.3 0 67
2017-08-07 09:00:00 20.3 9 Sur 15 Sur 0 901.3 0 72
2017-08-07 08:00:00 19.5 9 Nordeste 17 Nordeste 0 901.4 -0.3 75
2017-08-07 07:00:00 19.5 6 Nordeste 11 Nordeste 0 901.3 -1.1 76
2017-08-07 06:00:00 19.4 5 Nordeste 10 Norte 0 901.3 -1.6 76
2017-08-07 05:00:00 19.8 2 Sudoeste 14 Norte 0 901.7 -1.4 74
2017-08-07 04:00:00 19.3 5 Nordeste 11 Norte 0 902.4 -0.8 77
2017-08-07 03:00:00 18.5 5 Nordeste 11 Nordeste 0 902.9 -0.7 82
2017-08-07 02:00:00 18.3 6 Nordeste 21 Norte 0 903.1 -0.4 81
2017-08-07 01:00:00 19.1 12 Nordeste 21 Nordeste 0 903.2 0.2 78
2017-08-07 00:00:00 19.7 5 Norte 14 Norte 0 903.6 0.8 76
2017-08-06 23:00:00 20 6 Norte 23 Norte 0 903.5 0.6 74
2017-08-06 22:00:00 20.2 17 Norte 23 Nordeste 0 903 -0.3 74
2017-08-06 21:00:00 21.7 9 Nordeste 16 Norte 0 902.8 -0.9 69
2017-08-06 20:00:00 23.2 4 Norte 15 Nordeste 0 902.9 -1 62
2017-08-06 19:00:00 24.5 4 Sur 17 Sur 0 903.3 -0.8 58
2017-08-06 18:00:00 23.9 10 Sur 18 Sur 0 903.7 -0.7 60
2017-08-06 17:00:00 23.9 5 Sur 15 Sudoeste 0 903.9 -0.9 62
2017-08-06 16:00:00 23.2 4 Sudoeste 13 Sur 0 904.1 -1.1 66
2017-08-06 15:00:00 21.7 3 Sur 10 Sur 0 904.4 -0.9 71
2017-08-06 14:00:00 20 3 Norte 8 Nordeste 0 904.8 -0.2 77
2017-08-06 13:00:00 16.9 4 Este 7 Este 0 905.2 0.5 89
2017-08-06 12:00:00 15.4 2 Sur 7 Sur 0 905.3 1.2 92
2017-08-06 11:00:00 15.6 5 Sur 8 Sur 0 905 1.2 92
2017-08-06 10:00:00 15.2 6 Sur 9 Sur 0 904.7 1.7 92
2017-08-06 09:00:00 14.7 2 Sur 8 Sur 0 904.1 1.2 94
2017-08-06 08:00:00 14.4 2 Sudeste 9 Oeste 0 903.8 1.2 94
2017-08-06 07:00:00 14.7 4 Oeste 8 Sudoeste 0 903 0.1 93
2017-08-06 06:00:00 14.9 4 Este 12 Noroeste 1 902.9 -0.1 92
2017-08-06 05:00:00 15.4 2 Sur 13 Sudoeste 0 902.6 -0.4 91
2017-08-06 04:00:00 15.6 6 Oeste 18 Noroeste 0 902.9 -0.7 90
2017-08-06 03:00:00 15.8 7 Sur 12 Sur 0 903 0.6 91
2017-08-06 02:00:00 -- -- -- -- -- -- -- -- --
2017-08-06 01:00:00 17.1 11 Nordeste -- -- 4.8 903.6 0.8 82
2017-08-06 00:00:00 19.4 5 Norte 12 Oeste 0 902.4 0.3 64
2017-08-05 23:00:00 19.8 4 Noroeste 9 Sudeste 0 902.9 1.4 62
2017-08-05 22:00:00 20.8 5 Oeste 13 Sudoeste 0 902.8 1.7 59
2017-08-05 21:00:00 22.4 10 Oeste 23 Oeste 0 902.1 0.8 54
2017-08-05 20:00:00 25.4 9 Oeste 27 Sudoeste 0 901.5 0 46
2017-08-05 19:00:00 28.9 13 Sudoeste 28 Sudoeste 0 901.1 -1 39
2017-08-05 18:00:00 31.4 9 Sudoeste 26 Sudoeste 0 901.3 -1.2 34
2017-08-05 17:00:00 31.6 9 Oeste 22 Oeste 0 901.5 -1.3 34
2017-08-05 16:00:00 31.7 11 Sur 29 Sudoeste 0 902.1 -1 32
2017-08-05 15:00:00 30.8 9 Oeste 27 Sudoeste 0 902.5 -0.8 32
2017-08-05 14:00:00 30.6 11 Sudoeste 29 Sur 0 902.8 -0.5 32
2017-08-05 13:00:00 30.3 9 Sudoeste 20 Sudoeste 0 903.1 -0.1 34
2017-08-05 12:00:00 29 10 Sudoeste 22 Sudoeste 0 903.3 0.4 34
2017-08-05 11:00:00 27.6 6 Sur 13 Sur 0 903.3 0.8 36
2017-08-05 10:00:00 24.7 4 Sudeste 9 Sudeste 0 903.2 0.7 42
2017-08-05 09:00:00 21.9 4 Sudoeste 13 Oeste 0 902.9 0.4 50
2017-08-05 08:00:00 20.5 4 Norte 10 Nordeste 0 902.5 -0.1 49
2017-08-05 07:00:00 20.3 5 Norte 12 Nordeste 0 902.5 -0.3 49
2017-08-05 06:00:00 19.7 2 Sudoeste 6 Norte 0 902.5 -0.6 52
2017-08-05 05:00:00 19.7 2 Sudoeste 9 Norte 0 902.6 -0.5 51
2017-08-05 04:00:00 19.9 3 Noroeste 6 Nordeste 0 902.8 -0.3 50
2017-08-05 03:00:00 20.5 0 Calma 7 Nordeste 0 903.1 -0.2 49
2017-08-05 02:00:00 20.5 2 Nordeste 12 Norte 0 903.1 -0.4 43
2017-08-05 01:00:00 21.5 5 Norte 15 Nordeste 0 903.1 0.1 39
2017-08-05 00:00:00 22.1 9 Norte 15 Norte 0 903.3 0.8 42
2017-08-04 23:00:00 22.4 9 Norte 14 Nordeste 0 903.5 1.2 53
2017-08-04 22:00:00 24 7 Norte 12 Norte 0 903 0.8 56
2017-08-04 21:00:00 26.6 4 Noroeste 22 Oeste 0 902.5 0.4 51
2017-08-04 20:00:00 28.7 9 Oeste 30 Sudoeste 0 902.3 -0.1 39
2017-08-04 19:00:00 31.2 11 Oeste 30 Sudoeste 0 902.2 -0.5 29
2017-08-04 18:00:00 32 10 Oeste 26 Noroeste 0 902.1 -1.1 26
2017-08-04 17:00:00 32.1 11 Noroeste 26 Oeste 0 902.4 -1.1 27
2017-08-04 16:00:00 31.9 9 Norte 30 Sur 0 902.7 -1 28
2017-08-04 15:00:00 32.2 10 Sur 32 Sudeste 0 903.2 -0.7 27
2017-08-04 14:00:00 31.5 10 Sudoeste 26 Sudoeste 0 903.5 -0.4 27
2017-08-04 13:00:00 31 10 Sur 24 Sur 0 903.7 0 27
2017-08-04 12:00:00 30.4 10 Sur 24 Sudoeste 0 903.9 0.4 29
2017-08-04 11:00:00 29.2 7 Sudoeste 18 Sudoeste 0 903.9 0.6 31
2017-08-04 10:00:00 26.7 3 Este 15 Nordeste 0 903.7 0.7 37
2017-08-04 09:00:00 22.9 6 Nordeste 13 Norte 0 903.5 0.9 48
2017-08-04 08:00:00 20.4 6 Norte 17 Norte 0 903.3 0.6 49
2017-08-04 07:00:00 20 2 Norte 18 Nordeste 0 903 0.1 47
2017-08-04 06:00:00 21 10 Nordeste 21 Norte 0 902.6 -0.3 44
2017-08-04 05:00:00 21.1 13 Norte 19 Norte 0 902.7 -0.4 44
2017-08-04 04:00:00 21 10 Nordeste 18 Nordeste 0 902.9 -0.4 41
2017-08-04 03:00:00 21.4 8 Norte 19 Nordeste 0 902.9 -0.3 39
2017-08-04 02:00:00 22.3 12 Norte 19 Norte 0 903.1 -0.1 36
2017-08-04 01:00:00 22.5 8 Norte 20 Norte 0 903.3 0.5 35
2017-08-04 00:00:00 23.3 14 Norte 21 Nordeste 0 903.2 0.8 32
2017-08-03 23:00:00 23.6 8 Norte 14 Norte 0 903.2 0.9 36
2017-08-03 22:00:00 24.9 12 Norte 18 Norte 0 902.8 0.4 30
2017-08-03 21:00:00 27.7 8 Norte 17 Sudoeste 0 902.4 -0.1 23
2017-08-03 20:00:00 30.6 13 Sudoeste 21 Sudoeste 0 902.3 -0.5 17
2017-08-03 19:00:00 32.2 12 Sur 27 Sur 0 902.4 -0.6 17
2017-08-03 18:00:00 32.7 13 Sur 30 Sur 0 902.5 -1.1 20
2017-08-03 17:00:00 32.5 18 Sur 31 Sur 0 902.8 -1.2 22
2017-08-03 16:00:00 32.8 9 Sudoeste 28 Sudoeste 0 903 -1.2 23
2017-08-03 15:00:00 32.2 14 Sur 33 Sur 0 903.6 -0.8 21
2017-08-03 14:00:00 31.5 15 Sur 34 Sudoeste 0 904 -0.8 23
2017-08-03 13:00:00 31.7 11 Sur 28 Sur 0 904.2 -0.7 22
2017-08-03 12:00:00 30.5 12 Sur 22 Sur 0 904.4 -0.3 26
2017-08-03 11:00:00 28.9 12 Sudeste 26 Sur 0 904.8 0.3 29
2017-08-03 10:00:00 27.5 5 Sur 12 Nordeste 0 904.9 0.4 32
2017-08-03 09:00:00 23.3 9 Nordeste 14 Norte 0 904.7 0.6 48
2017-08-03 08:00:00 21 9 Nordeste 19 Norte 0 904.5 0.7 52
2017-08-03 07:00:00 20.7 9 Nordeste 21 Norte 0 904.5 0.4 54
2017-08-03 06:00:00 21.5 12 Norte 21 Norte 0 904.1 -0.1 53
2017-08-03 05:00:00 22.6 13 Norte 23 Norte 0 903.8 -0.6 50
2017-08-03 04:00:00 23 13 Nordeste 19 Norte 0 904.1 -0.7 50
2017-08-03 03:00:00 24.1 6 Nordeste 18 Este 0 904.2 -0.7 44
2017-08-03 02:00:00 24.5 9 Nordeste 22 Nordeste 0 904.4 -0.4 40
2017-08-03 01:00:00 24.3 10 Nordeste 29 Nordeste 0 904.8 0.6 37
2017-08-03 00:00:00 23.6 15 Norte 22 Norte 0 904.9 1.2 37
2017-08-02 23:00:00 24.6 10 Nordeste 23 Nordeste 0 904.8 1.4 34
2017-08-02 22:00:00 24.8 6 Norte 13 Norte 0 904.2 0.4 33
2017-08-02 21:00:00 27.4 10 Sudeste 31 Sur 0 903.7 -0.5 28
2017-08-02 20:00:00 28.5 13 Sur 35 Sur 0 903.4 -1 27
2017-08-02 19:00:00 29.3 19 Sur 39 Sur 0 903.8 -0.6 25
2017-08-02 18:00:00 29.5 14 Sudeste 36 Sur 0 904.2 -1.1 25
2017-08-02 17:00:00 28.6 23 Sur 39 Sur 0 904.4 -0.9 28
2017-08-02 16:00:00 28.4 21 Sur 35 Sur 0 904.4 -1.1 28
2017-08-02 15:00:00 27.8 22 Sur 38 Sur 0 905.3 0 30
2017-08-02 14:00:00 28.8 20 Sudeste 33 Sur 0 905.3 0.2 29
2017-08-02 13:00:00 29.5 20 Sur 38 Sur 0 905.5 0.5 28
2017-08-02 12:00:00 29.2 12 Sudeste 41 Sur 0 905.3 0.3 31
2017-08-02 11:00:00 27 12 Sudeste 27 Sudeste 0 905.1 0.6 37
2017-08-02 10:00:00 26.4 6 Este 16 Nordeste 0 905 0.5 39
2017-08-02 09:00:00 22.1 4 Nordeste 17 Nordeste 0 905 0.8 57
2017-08-02 08:00:00 20.9 5 Norte 13 Norte 0 904.5 0.2 55
2017-08-02 07:00:00 21.3 8 Norte 18 Nordeste 0 904.5 0.1 51
2017-08-02 06:00:00 20.8 5 Noroeste 17 Norte 0 904.2 -0.2 55
2017-08-02 05:00:00 21.3 4 Norte 20 Sudeste 0 904.3 0 55
2017-08-02 04:00:00 21.8 13 Sudeste 28 Sudeste 0 904.4 0.1 54
2017-08-02 03:00:00 21 6 Nordeste 19 Norte 0 904.4 0.4 54
2017-08-02 02:00:00 20 9 Norte 19 Nordeste 0 904.3 0.9 59
2017-08-02 01:00:00 20.5 10 Nordeste 18 Nordeste 0 904.3 1.9 57
2017-08-02 00:00:00 21.4 9 Norte 18 Nordeste 0 904 2.5 52
2017-08-01 23:00:00 22.2 13 Norte 23 Nordeste 0 903.4 2.3 50
2017-08-01 22:00:00 23.1 8 Norte 17 Norte 0 902.4 1.4 44
2017-08-01 21:00:00 26.4 6 Oeste 16 Sudoeste 0 901.5 0.8 32
2017-08-01 20:00:00 27.2 12 Sur 22 Sur 0 901.1 0.6 33
2017-08-01 19:00:00 27.9 15 Sur 30 Sudeste 0 901 0.7 29
2017-08-01 18:00:00 29.8 15 Sur 32 Sudoeste 0 900.7 0.3 24
2017-08-01 17:00:00 28.3 18 Sur 41 Sur 0 900.5 -0.1 28
2017-08-01 16:00:00 29.3 17 Sur 34 Sur 0 900.3 -0.2 27
2017-08-01 15:00:00 27.2 16 Sur 35 Sur 0 900.4 0 41
2017-08-01 14:00:00 27.7 15 Sur 33 Sur 0 900.6 0.5 42
2017-08-01 13:00:00 27.1 15 Sur 32 Sur 0 900.5 0.9 45
2017-08-01 12:00:00 25.6 10 Sur 21 Sudoeste 0 900.4 1.1 46
2017-08-01 11:00:00 23.6 5 Sudeste 12 Sudeste 0 900.1 1.7 55
2017-08-01 10:00:00 22 5 Sur 10 Sur 0 899.6 1.5 59
2017-08-01 09:00:00 19.5 3 Sur 9 Oeste 0 899.3 1.5 64
2017-08-01 08:00:00 17.4 3 Noroeste 9 Oeste 0 898.4 0.3 70
2017-08-01 07:00:00 17.7 2 Sudeste 10 Norte 0 898.1 0.2 66
2017-08-01 06:00:00 18.8 3 Noroeste 15 Norte 0 897.8 -0.2 58
2017-08-01 05:00:00 17.7 4 Oeste 10 Oeste 0 898.1 0 67
2017-08-01 04:00:00 17.4 3 Oeste 6 Oeste 0 897.9 0 75
2017-08-01 03:00:00 17.6 3 Nordeste 8 Oeste 0 898 0.8 76
2017-08-01 02:00:00 18.7 4 Nordeste 5 Nordeste 0 898.1 1.1 73
2017-08-01 01:00:00 20.2 4 Sudoeste 16 Oeste 0 897.9 1.7 65
2017-08-01 00:00:00 22.4 4 Noroeste 12 Norte 0 897.2 1.4 47
2017-07-31 23:00:00 24.6 10 Norte 17 Nordeste 0 897 1.6 35
2017-07-31 22:00:00 27.4 9 Sur 31 Sur 0 896.2 0.6 27
2017-07-31 21:00:00 29.1 16 Sur 36 Sur 0 895.8 0 28
2017-07-31 20:00:00 29.8 14 Sur 32 Sur 0 895.4 -0.8 24
2017-07-31 19:00:00 30.3 20 Sur 39 Sur 0 895.6 -1 21
2017-07-31 18:00:00 31.6 17 Sudeste 39 Sudeste 0 895.8 -1 23
2017-07-31 17:00:00 31.6 17 Sur 46 Sudoeste 0 896.2 -0.8 24
2017-07-31 16:00:00 32.5 18 Sur 43 Sur 0 896.6 -0.7 21
2017-07-31 15:00:00 31.4 21 Sur 49 Sur 0 896.8 -0.6 21
2017-07-31 14:00:00 30.6 17 Sur 40 Sur 0 897 -0.5 26
2017-07-31 13:00:00 29.7 18 Sudeste 44 Sur 0 897.3 -0.3 27
2017-07-31 12:00:00 28.1 23 Sur 42 Sur 0 897.4 -0.1 28
2017-07-31 11:00:00 27.9 14 Sudeste 36 Sur 0 897.5 0 28
2017-07-31 10:00:00 26.1 10 Sudeste 22 Sudeste 0 897.6 0.2 32
2017-07-31 09:00:00 22.9 4 Noroeste 12 Norte 0 897.5 -0.1 44
2017-07-31 08:00:00 18.8 5 Norte 11 Norte 0 897.5 -0.1 54
2017-07-31 07:00:00 19.3 6 Oeste 23 Nordeste 0 897.4 -0.4 55
2017-07-31 06:00:00 17.7 3 Nordeste 7 Nordeste 0 897.6 -0.8 70
2017-07-31 05:00:00 17.5 3 Sudoeste 6 Sudoeste 0 897.6 -0.9 73
2017-07-31 04:00:00 18.1 4 Noroeste 9 Oeste 0 897.8 -0.6 69
2017-07-31 03:00:00 18.8 3 Nordeste 6 Nordeste 0 898.4 0 66
2017-07-31 02:00:00 19.7 2 Norte 12 Norte 0 898.5 -0.4 63
2017-07-31 01:00:00 21.4 7 Oeste 15 Oeste 0 898.4 0.1 56
2017-07-31 00:00:00 22 8 Norte 18 Norte 0 898.4 0.1 51
2017-07-30 23:00:00 21.8 5 Noroeste 13 Norte 0 898.9 1.2 54
2017-07-30 22:00:00 23.2 6 Norte 16 Norte 0 898.3 0.7 50
2017-07-30 21:00:00 25.2 11 Sudoeste 27 Sudeste 0 898.3 0.3 43
2017-07-30 20:00:00 29.2 7 Sudoeste 32 Sudoeste 0 897.7 -0.8 31
2017-07-30 19:00:00 30.7 9 Sur 33 Sur 0 897.6 -1.4 24
2017-07-30 18:00:00 30.5 15 Sur 27 Sur 0 898 -1.3 24
2017-07-30 17:00:00 30.6 6 Sur 38 Sudoeste 0 898.5 -1 25
2017-07-30 16:00:00 29.8 19 Sur 41 Sur 0 899 -0.9 23
2017-07-30 15:00:00 31.4 18 Sur 37 Sudoeste 0 899.3 -0.7 22
2017-07-30 14:00:00 30.1 18 Sur 32 Sudoeste 0 899.5 -0.7 24
2017-07-30 13:00:00 29.7 18 Sudoeste 36 Sudoeste 0 899.9 -0.5 29
2017-07-30 12:00:00 29.1 13 Sur 22 Sur 0 900 -0.5 32
2017-07-30 11:00:00 27.9 6 Sur 14 Sur 0 900.2 0 39
2017-07-30 10:00:00 25.2 3 Sudeste 7 Nordeste 0 900.4 0.3 48
2017-07-30 09:00:00 22.8 2 Este 10 Nordeste 0 900.5 0.3 58
2017-07-30 08:00:00 21.5 6 Norte 19 Nordeste 0 900.2 -0.1 57
2017-07-30 07:00:00 21 5 Norte 19 Nordeste 0 900.1 -0.4 58
2017-07-30 06:00:00 21.4 5 Norte 15 Nordeste 0 900.2 -0.7 57
2017-07-30 05:00:00 21.6 8 Norte 19 Norte 0 900.3 -0.7 58
2017-07-30 04:00:00 22.3 8 Nordeste 19 Norte 0 900.5 -1 56
2017-07-30 03:00:00 22.7 9 Norte 19 Norte 0 900.9 -0.5 53
2017-07-30 02:00:00 23.3 12 Nordeste 21 Nordeste 0 901 -0.4 50
2017-07-30 01:00:00 23.9 13 Norte 22 Nordeste 0 901.5 0.6 43
2017-07-30 00:00:00 23.4 11 Norte 20 Norte 0 901.4 0.8 41
2017-07-29 23:00:00 24.5 10 Norte 16 Norte 0 901.4 0.9 37
2017-07-29 22:00:00 25.1 7 Norte 15 Norte 0 900.9 0.3 36
2017-07-29 21:00:00 27.8 5 Norte 22 Oeste 0 900.6 -0.3 29
2017-07-29 20:00:00 30.1 9 Oeste 30 Sur 0 900.5 -0.6 23
2017-07-29 19:00:00 30.9 13 Sur 28 Sur 0 900.6 -0.8 24
2017-07-29 18:00:00 31.2 15 Sur 30 Sur 0 900.9 -0.7 26
2017-07-29 17:00:00 31.9 13 Sur 32 Sur 0 901.1 -0.7 24
2017-07-29 16:00:00 31.6 16 Sur 35 Sur 0 901.4 -0.8 26
2017-07-29 15:00:00 31.4 15 Sudoeste 31 Sudoeste 0 901.6 -0.7 29
2017-07-29 14:00:00 31 12 Sudoeste 27 Sur 0 901.8 -0.6 31
2017-07-29 13:00:00 30 16 Sur 31 Sur 0 902.2 -0.4 29
2017-07-29 12:00:00 29.2 15 Sur 27 Sur 0 902.3 -0.2 33
2017-07-29 11:00:00 28.1 8 Sur 15 Sur 0 902.4 0.2 37
2017-07-29 10:00:00 25.1 4 Este 14 Nordeste 0 902.6 0.5 49
2017-07-29 09:00:00 22.5 12 Nordeste 21 Norte 0 902.5 0.3 52
2017-07-29 08:00:00 19.9 6 Norte 21 Nordeste 0 902.2 0.1 57
2017-07-29 07:00:00 20.4 13 Nordeste 22 Norte 0 902.1 -0.2 49
2017-07-29 06:00:00 19 3 Nordeste 15 Nordeste 0 902.2 -0.9 48
2017-07-29 05:00:00 20.1 9 Norte 19 Nordeste 0 902.1 -1.2 37
2017-07-29 04:00:00 20 12 Nordeste 22 Nordeste 0 902.3 -1.1 38
2017-07-29 03:00:00 19.9 12 Norte 22 Nordeste 0 903.1 -0.3 37
2017-07-29 02:00:00 20.2 6 Noroeste 15 Norte 0 903.3 -0.1 39
2017-07-29 01:00:00 20.1 4 Norte 21 Norte 0 903.4 0.8 43
2017-07-29 00:00:00 21 6 Norte 16 Norte 0 903.4 1.3 42
2017-07-28 23:00:00 21.7 4 Norte 19 Norte 0 903.4 1.4 40
2017-07-28 22:00:00 23.5 9 Norte 17 Nordeste 0 902.6 0.8 36
2017-07-28 21:00:00 26.7 3 Norte 14 Norte 0 902.1 0.3 29
2017-07-28 20:00:00 28.5 5 Sudoeste 17 Nordeste 0 902 -0.2 22
2017-07-28 19:00:00 29.5 6 Norte 25 Sudoeste 0 901.8 -0.7 18
2017-07-28 18:00:00 30.8 5 Sudeste 28 Sur 0 901.8 -0.9 20
2017-07-28 17:00:00 31 7 Sudoeste 28 Sur 0 902.2 -0.8 18
2017-07-28 16:00:00 31.1 10 Sudoeste 29 Sur 0 902.5 -0.5 17
2017-07-28 15:00:00 30.7 13 Sur 32 Sur 0 902.7 -0.1 21
2017-07-28 14:00:00 29.8 13 Sur 25 Sudoeste 0 903 0 21
2017-07-28 13:00:00 29 13 Sur 27 Sudoeste 0 903 0 28
2017-07-28 12:00:00 28.4 8 Sur 24 Sudoeste 0 902.8 0 29
2017-07-28 11:00:00 27 5 Sudeste 10 Sudeste 0 903 0.6 32
2017-07-28 10:00:00 23.6 4 Sudeste 10 Nordeste 0 903 1.3 42
2017-07-28 09:00:00 19.7 4 Nordeste 8 Nordeste 0 902.8 1.2 53
2017-07-28 08:00:00 14.8 2 Nordeste 5 Norte 0 902.4 0.7 64
2017-07-28 07:00:00 15.4 2 Noroeste 8 Noroeste 0 901.7 -0.1 59
2017-07-28 06:00:00 15.9 2 Noroeste 8 Norte 0 901.6 0 56
2017-07-28 05:00:00 16 3 Noroeste 8 Nordeste 0 901.7 -0.3 53
2017-07-28 04:00:00 16.3 2 Este 16 Nordeste 0 901.8 0 52
2017-07-28 03:00:00 18 5 Nordeste 19 Nordeste 0 901.6 0 46
2017-07-28 02:00:00 17.4 0 Calma 8 Norte 0 902 0.6 43
2017-07-28 01:00:00 19 4 Nordeste 18 Norte 0 901.8 1 37
2017-07-28 00:00:00 19.8 8 Norte 14 Norte 0 901.6 1.4 33
2017-07-27 23:00:00 21.1 5 Norte 15 Norte 0 901.4 1.3 31
2017-07-27 22:00:00 22.5 9 Norte 16 Norte 0 900.8 0.6 27
2017-07-27 21:00:00 24.4 4 Nordeste 21 Noroeste 0 900.2 0 25
2017-07-27 20:00:00 27.1 7 Norte 27 Noroeste 0 900.1 -0.4 20
2017-07-27 19:00:00 29 7 Norte 30 Oeste 0 900.2 -0.3 19
2017-07-27 18:00:00 29.8 13 Sudoeste 33 Sudoeste 0 900.2 -0.5 21
2017-07-27 17:00:00 30.2 13 Sudoeste 36 Sudoeste 0 900.5 -0.5 20
2017-07-27 16:00:00 30.1 10 Sudoeste 32 Sudoeste 0 900.5 -0.8 20
2017-07-27 15:00:00 30.1 10 Norte 23 Sudoeste 0 900.7 -0.8 20
2017-07-27 14:00:00 29.2 9 Sudoeste 31 Sudoeste 0 901 -0.5 21
2017-07-27 13:00:00 28.6 7 Sur 26 Sudoeste 0 901.3 -0.5 22
2017-07-27 12:00:00 26.9 9 Sudoeste 29 Oeste 0 901.5 -0.2 24
2017-07-27 11:00:00 24.6 7 Sudeste 11 Sur 0 901.5 0.4 25
2017-07-27 10:00:00 21.9 3 Este 8 Nordeste 0 901.8 0.5 30
2017-07-27 09:00:00 17.8 4 Nordeste 7 Nordeste 0 901.7 0.6 51
2017-07-27 08:00:00 14.4 2 Nordeste 5 Este 0 901.1 0.3 45
2017-07-27 07:00:00 13.6 2 Sudoeste 7 Norte 0 901.3 0.1 44
2017-07-27 06:00:00 14.1 6 Norte 10 Nordeste 0 901.1 -0.4 41
2017-07-27 05:00:00 14.1 3 Sur 16 Nordeste 0 900.8 -0.8 41
2017-07-27 04:00:00 14.6 5 Nordeste 13 Norte 0 901.2 -0.5 41
2017-07-27 03:00:00 15 6 Norte 15 Nordeste 0 901.5 -0.1 42
2017-07-27 02:00:00 14.7 3 Norte 10 Norte 0 901.6 0.1 46
2017-07-27 01:00:00 15.6 5 Sudeste 14 Norte 0 901.7 0.7 44
2017-07-27 00:00:00 16.8 7 Norte 18 Nordeste 0 901.6 1 41
2017-07-26 23:00:00 17 4 Norte 11 Norte 0 901.5 1.2 48
2017-07-26 22:00:00 19.2 3 Norte 11 Norte 0 901 0.8 42
2017-07-26 21:00:00 22 7 Norte 20 Noroeste 0 900.6 0.4 31
2017-07-26 20:00:00 23.7 10 Oeste 25 Sudoeste 0 900.3 0 33
2017-07-26 19:00:00 23.8 14 Nordeste 27 Norte 0 900.2 -0.1 33
2017-07-26 18:00:00 24.7 20 Nordeste -- -- 0 900.2 -0.1 31
2017-07-26 17:00:00 25.1 18 Nordeste 39 Nordeste 0 900.3 -0.2 29
2017-07-26 16:00:00 25.5 14 Nordeste 35 Nordeste 0 900.3 -0.4 29
2017-07-26 15:00:00 25.2 20 Nordeste 36 Nordeste 0 900.3 -0.6 31
2017-07-26 14:00:00 25.9 9 Sudeste 21 Sudoeste 0 900.5 -0.6 31
2017-07-26 13:00:00 23.3 8 Sudoeste 24 Sudoeste 0 900.7 -0.5 36
2017-07-26 12:00:00 21.9 8 Sur 21 Sudoeste 0 900.9 -0.2 42
2017-07-26 11:00:00 19 7 Sur 14 Sur 0 901.1 0.4 44
2017-07-26 10:00:00 16.8 5 Sudeste 10 Sudeste 0 901.2 0.8 47
2017-07-26 09:00:00 13.3 4 Nordeste 12 Nordeste 0 901.1 0.9 59
2017-07-26 08:00:00 9.5 0 Calma 9 Nordeste 0 900.7 0.5 74
2017-07-26 07:00:00 9 3 Norte 7 Nordeste 0 900.4 -0.2 72
2017-07-26 06:00:00 9.2 2 Noroeste 11 Sudoeste 0 900.2 -0.3 71
2017-07-26 05:00:00 10 5 Norte 13 Norte 0 900.2 -0.6 68
2017-07-26 04:00:00 9.7 4 Norte 9 Nordeste 0 900.6 -0.2 72
2017-07-26 03:00:00 10.3 4 Noroeste 10 Nordeste 0 900.5 -0.4 70
2017-07-26 02:00:00 10.7 2 Norte 10 Norte 0 900.8 0.1 69
2017-07-26 01:00:00 12 3 Oeste 14 Este 0 900.8 0.5 64
2017-07-26 00:00:00 13.3 5 Sudoeste 23 Nordeste 0 900.9 0.9 59
2017-07-25 23:00:00 14.5 9 Nordeste 36 Nordeste 0 900.7 0.9 53
2017-07-25 22:00:00 16.6 19 Nordeste 46 Nordeste 0 900.3 0.6 43
2017-07-25 21:00:00 17.2 16 Norte -- -- 0 900 -0.1 43
2017-07-25 20:00:00 17.5 30 Norte 55 Norte 0 899.8 -0.6 47
2017-07-25 19:00:00 19.4 22 Nordeste 37 Norte 0 899.7 -1 39
2017-07-25 18:00:00 20.1 22 Nordeste 45 Norte 0 900.1 -0.9 38
2017-07-25 17:00:00 20.4 29 Nordeste 51 Nordeste 0 900.4 -0.7 38
2017-07-25 16:00:00 20.8 27 Nordeste 49 Nordeste 0 900.7 -0.7 35
2017-07-25 15:00:00 20.7 28 Nordeste -- -- 0 901 -0.8 38
2017-07-25 14:00:00 20.9 -- -- -- -- 0 901.1 -0.9 36
2017-07-25 13:00:00 21.1 21 Nordeste 41 Nordeste 0 901.4 -0.9 32
2017-07-25 12:00:00 22 5 Sudeste 19 Nordeste 0 901.8 -0.6 34
2017-07-25 11:00:00 19.9 7 Sudeste 32 Nordeste 0 902 -0.4 38
2017-07-25 10:00:00 16.3 15 Este 42 Nordeste 0 902.3 0 51
2017-07-25 09:00:00 14.9 3 Sudeste 12 Nordeste 0 902.4 0.1 55
2017-07-25 08:00:00 10.2 5 Norte 11 Nordeste 0 902.4 0 71
2017-07-25 07:00:00 9.7 4 Norte 12 Norte 0 902.3 -0.5 72
2017-07-25 06:00:00 10.3 6 Noroeste 12 Este 0 902.3 -0.8 70
2017-07-25 05:00:00 11.3 5 Sudoeste 15 Norte 0 902.4 -0.9 65
2017-07-25 04:00:00 11.9 5 Noroeste 13 Noroeste 0 902.8 -1.2 62
2017-07-25 03:00:00 12.5 7 Sudeste 31 Nordeste 0 903.1 -1 62
2017-07-25 02:00:00 14.1 8 Noroeste 44 Norte 0 903.3 -0.7 55
2017-07-25 01:00:00 14.7 14 Norte 41 Nordeste 0 904 0.1 54
2017-07-25 00:00:00 14.4 4 Sudoeste 41 Nordeste 0 904.1 0.2 61
2017-07-24 23:00:00 16.1 15 Norte 42 Nordeste 0 904 0.1 51
2017-07-24 22:00:00 16.2 9 Noroeste 22 Nordeste 0 903.9 0.4 56
2017-07-24 21:00:00 17.2 12 Noroeste 33 Norte 0 903.9 0.4 52
2017-07-24 20:00:00 17.8 15 Norte 42 Norte 0 903.9 0.4 53
2017-07-24 19:00:00 19.1 19 Nordeste 33 Norte 0 903.5 0 52
2017-07-24 18:00:00 19.9 12 Nordeste 31 Nordeste 0 903.5 0 50
2017-07-24 17:00:00 21.1 8 Nordeste 45 Oeste 0 903.5 -0.2 47
2017-07-24 16:00:00 20.9 9 Norte 35 Sudoeste 0 903.5 -0.4 46
2017-07-24 15:00:00 20.1 19 Sudoeste 51 Sudoeste 0 903.5 -0.5 60
2017-07-24 14:00:00 22 9 Noroeste 37 Oeste 0 903.7 -0.1 40
2017-07-24 13:00:00 18.7 17 Sudoeste 39 Sudoeste 0 903.9 0.2 62
2017-07-24 12:00:00 19.3 13 Sudoeste 31 Sudoeste 0 904 0.8 57
2017-07-24 11:00:00 20.2 10 Noroeste 33 Sudoeste 0 903.8 0.9 48
2017-07-24 10:00:00 19.4 8 Noroeste 22 Nordeste 0 903.7 0.5 51
2017-07-24 09:00:00 16.3 6 Nordeste 20 Norte 0 903.2 0.2 70
2017-07-24 08:00:00 14.3 4 Nordeste 16 Norte 0 902.9 -0.2 78
2017-07-24 07:00:00 14.3 6 Norte 19 Norte 0 903.2 -0.3 80
2017-07-24 06:00:00 15.7 10 Noroeste 21 Sudoeste 0 903 -0.8 76
2017-07-24 05:00:00 14.8 4 Noroeste 9 Nordeste 0 903.1 -0.9 75
2017-07-24 04:00:00 14.1 4 Norte 8 Norte 0 903.5 -0.7 73
2017-07-24 03:00:00 14.4 3 Noroeste 8 Norte 0 903.8 -0.3 67
2017-07-24 02:00:00 14.9 4 Norte 10 Nordeste 0 904 0.2 63
2017-07-24 01:00:00 14.8 3 Norte 10 Nordeste 0 904.2 1.1 61
2017-07-24 00:00:00 15.4 2 Noroeste 11 Norte 0 904.1 1.2 58
2017-07-23 23:00:00 17.3 3 Norte 13 Norte 0 903.8 1.3 57
2017-07-23 22:00:00 19.1 4 Norte 17 Sudoeste 0 903.1 0.5 50
2017-07-23 21:00:00 21.6 9 Oeste 27 Oeste 0 902.9 0.3 43
2017-07-23 20:00:00 23.7 8 Sudoeste 29 Sudoeste 0 902.5 -0.5 37
2017-07-23 19:00:00 25.5 10 Sudoeste 27 Sudoeste 0 902.6 -0.8 42
2017-07-23 18:00:00 24.9 13 Sudoeste 28 Sudoeste 0 902.6 -1.2 43
2017-07-23 17:00:00 26.6 14 Sudoeste 30 Sudoeste 0 903 -1.1 33
2017-07-23 16:00:00 26.7 9 Sudoeste 24 Sudoeste 0 903.4 -0.9 39
2017-07-23 15:00:00 25.7 11 Sudoeste 25 Sudoeste 0 903.8 -0.4 44
2017-07-23 14:00:00 25.8 11 Sudoeste 32 Sudoeste 0 904.1 -0.1 46
2017-07-23 13:00:00 23.5 10 Sur 24 Sur 0 904.3 -0.2 58
2017-07-23 12:00:00 25.4 10 Sudeste 16 Sudeste 0 904.2 -0.7 52
2017-07-23 11:00:00 23.2 6 Sur 14 Nordeste 0 904.2 -0.3 61
2017-07-23 10:00:00 20.4 11 Nordeste 18 Nordeste 0 904.5 0.3 66
2017-07-23 09:00:00 15 2 Nordeste 5 Nordeste 0 904.9 1 87
2017-07-23 08:00:00 13.9 0 Calma 8 Oeste 0 904.5 1 89
2017-07-23 07:00:00 13.7 2 Sudoeste 6 Oeste 0 904.2 0.7 88
2017-07-23 06:00:00 13.9 3 Nordeste 4 Norte 0 903.9 0.1 89
2017-07-23 05:00:00 14 2 Norte 7 Norte 0 903.5 -0.2 85
2017-07-23 04:00:00 15.2 2 Noroeste 5 Nordeste 0 903.5 -0.1 81
2017-07-23 03:00:00 14.9 0 Calma 6 Oeste 0 903.8 0.6 79
2017-07-23 02:00:00 15.7 4 Norte 7 Nordeste 0 903.7 1.2 74
2017-07-23 01:00:00 16.2 2 Nordeste 14 Norte 0 903.6 2 73
2017-07-23 00:00:00 16.8 6 Norte 11 Norte 0 903.2 2.4 70
2017-07-22 23:00:00 17.8 7 Norte 18 Nordeste 0 902.5 2.1 64
2017-07-22 22:00:00 19.4 9 Norte 21 Nordeste 0 901.6 1.3 58
2017-07-22 21:00:00 22.1 6 Noroeste 14 Nordeste 0 900.8 0.4 44
2017-07-22 20:00:00 24.7 3 Norte 13 Noroeste 0 900.4 0 39
2017-07-22 19:00:00 26.1 2 Este 28 Sudoeste 0 900.3 -0.1 30
2017-07-22 18:00:00 26.1 9 Sudoeste 19 Oeste 0 900.4 -0.2 34
2017-07-22 17:00:00 26 8 Oeste 20 Sudoeste 0 900.4 -0.3 40
2017-07-22 16:00:00 25.7 13 Sur 28 Sur 0 900.4 -0.3 40
2017-07-22 15:00:00 25.5 14 Sur 32 Sudoeste 0 900.6 0 47
2017-07-22 14:00:00 24 9 Sur 21 Sudoeste 0 900.7 0.3 61
2017-07-22 13:00:00 22.4 10 Sudoeste 21 Sur 0 900.7 0.4 61
2017-07-22 12:00:00 21.2 7 Sur 19 Sur 0 900.6 0.6 66
2017-07-22 11:00:00 20.8 9 Sur 16 Sur 0 900.4 0.6 72
2017-07-22 10:00:00 18.5 3 Oeste 6 Oeste 0 900.3 0.7 80
2017-07-22 09:00:00 16.9 0 Calma 6 Norte 0 900 1 92
2017-07-22 08:00:00 15.2 0 Calma 5 Nordeste 0 899.8 0.8 91
2017-07-22 07:00:00 14.9 2 Noroeste 15 Norte 0 899.6 0.4 90
2017-07-22 06:00:00 15.2 6 Norte 19 Nordeste 0 899 -0.4 89
2017-07-22 05:00:00 15.8 10 Norte 15 Norte 0 899 -0.5 90
2017-07-22 04:00:00 16 9 Nordeste 19 Nordeste 0 899.2 -0.4 90
2017-07-22 03:00:00 15.9 6 Noroeste 14 Nordeste 0 899.4 0.2 91
2017-07-22 02:00:00 15.7 7 Nordeste 14 Nordeste 0 899.5 0.7 92
2017-07-22 01:00:00 15.8 6 Norte 12 Norte 0.4 899.6 1.1 91
2017-07-22 00:00:00 15.8 11 Nordeste 22 Norte 0 899.2 1.1 89
2017-07-21 23:00:00 15.9 10 Norte 23 Nordeste 0 898.8 0.8 89
2017-07-21 22:00:00 16.4 10 Norte 19 Nordeste 0 898.5 1.1 88
2017-07-21 21:00:00 17.5 6 Norte 21 Norte 0 898.1 0.9 81
2017-07-21 20:00:00 17.9 10 Norte 30 Oeste 7.8 898 0.6 84
2017-07-21 19:00:00 20.2 12 Sur 32 Sudoeste 0 897.4 -0.4 67
2017-07-21 18:00:00 23.2 14 Sur 26 Sur 0 897.2 -0.8 49
2017-07-21 17:00:00 22.8 10 Sur 24 Sur 0 897.4 -0.8 48
2017-07-21 16:00:00 22.9 10 Sur 30 Sur 0 897.8 -0.7 54
2017-07-21 15:00:00 20.9 12 Sur 31 Sur 0 898 -0.6 62
2017-07-21 14:00:00 20.1 11 Este 23 Nordeste 0 898.2 -0.2 68
2017-07-21 13:00:00 19.3 11 Sudeste 28 Sudeste 0 898.5 0.2 69
2017-07-21 12:00:00 18.4 12 Sudeste 26 Sur 0 898.6 0.7 73
2017-07-21 11:00:00 17.4 9 Sudeste 23 Sudeste 0 898.4 0.7 78
2017-07-21 10:00:00 17 7 Sudeste 21 Sur 0 898.3 0.5 81
2017-07-21 09:00:00 16.5 4 Sudoeste 12 Sur 0 897.9 0.4 87
2017-07-21 08:00:00 15.3 0 Calma 10 Sudoeste 0 897.7 -0.2 88
2017-07-21 07:00:00 15.1 3 Sur 14 Norte 0 897.8 -0.2 88
2017-07-21 06:00:00 14.5 10 Sur 22 Sur 0 897.5 -0.6 83
2017-07-21 05:00:00 14.4 2 Sudeste 5 Sudoeste 0 897.9 -0.8 84
2017-07-21 04:00:00 14.5 3 Sudoeste 5 Sudoeste 0 898 -0.8 83
2017-07-21 03:00:00 15.1 2 Nordeste 15 Norte 0 898.1 -0.9 77
2017-07-21 02:00:00 15.1 4 Norte 6 Norte 0 898.7 0 77
2017-07-21 01:00:00 15.6 6 Nordeste 12 Norte 0 898.8 0.6 70
2017-07-21 00:00:00 15.9 3 Nordeste 10 Norte 0 899 0.8 74
2017-07-20 23:00:00 17 5 Norte 15 Norte 0 898.7 0.6 66
2017-07-20 22:00:00 18.1 10 Norte 16 Nordeste 0 898.2 0 64
2017-07-20 21:00:00 20.8 3 Norte 17 Sudoeste 0 898.2 -0.2 56
2017-07-20 20:00:00 23.9 8 Sudoeste 15 Noroeste 0 898.1 -0.6 44
2017-07-20 19:00:00 25.8 7 Oeste 24 Sudoeste 0 898.2 -0.7 36
2017-07-20 18:00:00 26.1 6 Oeste 22 Noroeste 0 898.4 -1 37
2017-07-20 17:00:00 25.4 9 Oeste 32 Sudoeste 0 898.7 -1.1 41
2017-07-20 16:00:00 25.7 8 Sur 23 Sudoeste 0 898.9 -1.1 43
2017-07-20 15:00:00 25.1 10 Sudoeste 23 Sudoeste 0 899.4 -0.8 48
2017-07-20 14:00:00 23.6 7 Norte 19 Sudoeste 0 899.8 -0.7 54
2017-07-20 13:00:00 23.9 8 Sur 20 Oeste 0 900 -0.7 55
2017-07-20 12:00:00 22.8 7 Sudeste 13 Sudeste 0 900.2 -0.3 59
2017-07-20 11:00:00 19.7 5 Sur 9 Sudeste 0 900.5 0.4 73
2017-07-20 10:00:00 16.4 5 Sur 10 Sur 0 900.7 0.8 85
2017-07-20 09:00:00 15.8 0 Calma 7 Nordeste 0 900.5 0.9 87
2017-07-20 08:00:00 14.3 0 Calma 12 Norte 0 900.1 0.6 91
2017-07-20 07:00:00 13.7 5 Nordeste 11 Nordeste 0 899.9 0.5 91
2017-07-20 06:00:00 14 5 Norte 13 Norte 0 899.6 -0.1 92
2017-07-20 05:00:00 14.1 5 Nordeste 11 Norte 0 899.5 -0.5 91
2017-07-20 04:00:00 14.5 4 Norte 14 Norte 0 899.4 -0.4 89
2017-07-20 03:00:00 15.3 8 Norte 13 Norte 0 899.7 -0.2 88
2017-07-20 02:00:00 15.9 7 Norte 17 Nordeste 0 900 0.5 89
2017-07-20 01:00:00 16.4 8 Norte 21 Norte 0 899.8 0.3 88
2017-07-20 00:00:00 16.8 5 Oeste 20 Norte 0.2 899.9 2.5 89
2017-07-19 23:00:00 17 8 Norte 25 Nordeste 0.2 899.5 2.2 88
2017-07-19 22:00:00 17.7 19 Norte -- -- 6.2 899.5 1.6 83
2017-07-19 21:00:00 23.6 9 Noroeste 38 Sudoeste 0 897.4 -1.1 42
2017-07-19 20:00:00 25.6 14 Sudeste 29 Nordeste 0 897.3 -1.3 31
2017-07-19 19:00:00 26.2 6 Sur 17 Sudeste 0 897.9 -1.1 33
2017-07-19 18:00:00 26.6 10 Sudoeste 27 Sudoeste 0 898.5 -0.7 27
2017-07-19 17:00:00 27.5 14 Sudoeste -- -- 0 898.6 -0.8 25
2017-07-19 16:00:00 27.8 -- -- -- -- 0 899 -0.6 26
2017-07-19 15:00:00 27.9 -- -- -- -- 0 899.2 -0.7 27
2017-07-19 14:00:00 27.5 22 Sur 35 Sur 0 899.4 -0.4 29
2017-07-19 13:00:00 25.1 17 Este 34 Sudeste 0 899.6 -0.3 36
2017-07-19 12:00:00 24.2 13 Sur 24 Sur 0 899.9 -0.3 37
2017-07-19 11:00:00 23.4 15 Este 37 Sudeste 0 899.8 -0.1 39
2017-07-19 10:00:00 23.5 13 Sudeste 34 Nordeste 0 899.9 -0.5 39
2017-07-19 09:00:00 22 15 Sudeste 35 Sudeste 0 900.2 1.3 42
2017-07-19 08:00:00 21.8 15 Sudeste 42 Sur 0 899.9 0.9 41
2017-07-19 07:00:00 19.3 4 Sudeste 17 Sudeste 0 900.4 1.8 51
2017-07-19 06:00:00 19.3 3 Noroeste 15 Norte 0 898.9 -0.9 45
2017-07-19 05:00:00 20.1 4 Oeste 22 Norte 0 899 -2.7 45
2017-07-19 04:00:00 19.1 12 Nordeste 24 Nordeste 0 898.6 -4.7 50
2017-07-19 03:00:00 21.7 7 Este -- -- 0 899.8 -2.1 43
2017-07-19 02:00:00 18.4 28 Nordeste 48 Nordeste 0.2 901.7 2.2 69
2017-07-19 01:00:00 22 13 Sudeste 35 Sur 0 903.3 3.7 49
2017-07-19 00:00:00 23.5 24 Sudeste 55 Sur 0 901.9 2.8 41